Time;durP1;ratioP1;P1;durP2;ratioP2;P2;SDS_P1;SDS_P2;PMS_P1;PMS_P2;Temp;Humidity;BMP_temperature;BMP_pressure;BME280_temperature;BME280_humidity;BME280_pressure;Samples;Min_cycle;Max_cycle;Signal;HPM_P1;HPM_P2
2023/09/10 00:01:22;;;;;;;10.57;9.23;;;;;;;24.81;58.43;101643.06;4961181;28;20146;-78
2023/09/10 00:03:48;;;;;;;12.63;9.55;;;;;;;24.80;58.53;101641.38;4958310;28;20046;-78
2023/09/10 00:06:13;;;;;;;10.68;9.00;;;;;;;24.80;58.29;101647.56;4961319;28;20477;-78
2023/09/10 00:08:38;;;;;;;10.67;9.50;;;;;;;24.80;58.22;101642.22;4960819;28;20042;-78
2023/09/10 00:11:07;;;;;;;13.38;9.90;;;;;;;24.80;58.20;101649.38;4960829;28;20292;-77
2023/09/10 00:13:32;;;;;;;13.23;10.02;;;;;;;24.78;58.15;101646.88;4961152;28;20084;-78
2023/09/10 00:15:58;;;;;;;11.15;9.90;;;;;;;24.79;58.12;101645.03;4959734;28;20058;-78
2023/09/10 00:18:23;;;;;;;10.57;9.23;;;;;;;24.79;58.27;101642.38;4960672;28;20499;-79
2023/09/10 00:20:51;;;;;;;10.80;9.65;;;;;;;24.79;58.14;101650.38;4992154;28;20486;-79
2023/09/10 00:23:17;;;;;;;10.68;9.57;;;;;;;24.78;58.17;101646.88;4960434;28;20380;-78
2023/09/10 00:25:42;;;;;;;10.60;9.38;;;;;;;24.79;58.26;101642.38;4960528;28;20042;-78
2023/09/10 00:28:08;;;;;;;10.60;9.00;;;;;;;24.79;58.26;101645.03;4992267;28;20130;-79
2023/09/10 00:30:36;;;;;;;9.77;8.77;;;;;;;24.76;58.24;101638.19;4960897;28;20058;-78
2023/09/10 00:33:01;;;;;;;10.07;9.05;;;;;;;24.78;58.22;101635.38;4960263;28;20081;-78
2023/09/10 00:35:30;;;;;;;11.38;9.35;;;;;;;24.77;58.28;101636.38;4960499;28;20034;-78
2023/09/10 00:37:55;;;;;;;12.93;9.65;;;;;;;24.76;58.29;101640.00;4960967;28;20042;-78
2023/09/10 00:40:21;;;;;;;10.43;9.43;;;;;;;24.76;58.28;101635.50;4992296;28;20046;-78
2023/09/10 00:42:46;;;;;;;10.98;9.63;;;;;;;24.77;58.13;101636.38;4961683;28;20039;-78
2023/09/10 00:45:12;;;;;;;11.65;10.20;;;;;;;24.76;57.98;101632.03;4992561;28;20045;-80
2023/09/10 00:47:49;;;;;;;11.23;9.77;;;;;;;24.76;58.23;101637.34;4964799;28;20139;-78
2023/09/10 00:50:14;;;;;;;11.05;9.32;;;;;;;24.76;58.22;101640.00;4965671;28;20034;-78
2023/09/10 00:52:46;;;;;;;10.43;9.30;;;;;;;24.75;58.43;101635.66;4965165;28;20038;-79
2023/09/10 00:55:13;;;;;;;10.98;9.82;;;;;;;24.76;57.99;101634.69;4963418;28;20155;-80
2023/09/10 00:57:39;;;;;;;11.38;9.73;;;;;;;24.74;58.05;101637.50;4965073;28;20391;-77
2023/09/10 01:00:09;;;;;;;11.40;10.20;;;;;;;24.75;58.18;101641.84;4964430;28;20035;-78
2023/09/10 01:02:34;;;;;;;11.38;10.15;;;;;;;24.76;58.22;101634.69;4996605;28;20144;-78
2023/09/10 01:05:03;;;;;;;11.13;9.95;;;;;;;24.75;58.18;101633.00;4965063;28;20500;-79
2023/09/10 01:07:28;;;;;;;11.52;10.07;;;;;;;24.73;57.79;101635.81;4995410;28;20047;-78
2023/09/10 01:09:53;;;;;;;13.35;9.75;;;;;;;24.74;58.23;101631.34;4964574;28;20030;-78
2023/09/10 01:12:40;;;;;;;13.13;10.17;;;;;;;24.72;57.86;101633.28;4965238;28;20057;-79
2023/09/10 01:15:35;;;;;;;12.48;10.55;;;;;;;24.73;58.00;101634.97;4964446;28;20303;-77
2023/09/10 01:18:43;;;;;;;11.25;10.07;;;;;;;24.74;58.13;101634.00;4979116;28;20051;-78
2023/09/10 01:21:23;;;;;;;12.38;10.02;;;;;;;24.73;58.03;101633.16;4964207;28;20042;-78
2023/09/10 01:24:10;;;;;;;13.15;10.27;;;;;;;24.74;57.80;101636.66;4964231;28;20031;-78
2023/09/10 01:26:37;;;;;;;11.68;10.23;;;;;;;24.73;57.74;101634.97;4964727;28;20412;-78
2023/09/10 01:29:04;;;;;;;11.55;10.35;;;;;;;24.72;57.94;101642.16;4964467;28;20035;-78
2023/09/10 01:31:31;;;;;;;12.93;10.65;;;;;;;24.71;58.27;101635.13;4964661;28;20125;-77
2023/09/10 01:34:01;;;;;;;11.60;10.40;;;;;;;24.72;58.00;101643.94;4964932;28;20031;-78
2023/09/10 01:36:33;;;;;;;12.57;10.82;;;;;;;24.70;58.17;101630.78;4963762;28;20027;-78
2023/09/10 01:39:11;;;;;;;14.27;11.07;;;;;;;24.71;58.18;101639.63;4963193;28;20121;-78
2023/09/10 01:41:38;;;;;;;12.18;10.60;;;;;;;24.71;57.82;101640.47;4963504;28;20047;-79
2023/09/10 01:44:05;;;;;;;12.88;11.50;;;;;;;24.72;58.21;101638.63;4963296;28;20038;-78
2023/09/10 01:46:34;;;;;;;13.45;11.05;;;;;;;24.69;57.86;101636.25;4963865;28;20081;-77
2023/09/10 01:49:01;;;;;;;12.88;11.10;;;;;;;24.71;58.11;101644.97;4962327;28;20047;-78
2023/09/10 01:51:27;;;;;;;11.82;10.52;;;;;;;24.70;57.88;101644.09;4963447;28;20045;-80
2023/09/10 01:53:52;;;;;;;12.35;11.07;;;;;;;24.69;57.95;101639.78;4963174;28;20404;-78
2023/09/10 01:56:17;;;;;;;13.10;10.50;;;;;;;24.70;58.08;101644.09;4962871;28;20149;-79
2023/09/10 01:58:43;;;;;;;12.52;11.23;;;;;;;24.70;57.71;101643.28;4962815;28;20419;-78
2023/09/10 02:01:08;;;;;;;11.32;10.13;;;;;;;24.70;57.88;101643.28;4978071;28;20062;-80
2023/09/10 02:03:33;;;;;;;13.18;10.82;;;;;;;24.70;58.04;101641.44;4963036;28;20110;-81
2023/09/10 02:06:03;;;;;;;13.97;10.67;;;;;;;24.70;58.12;101648.59;4963123;28;20066;-79
2023/09/10 02:08:29;;;;;;;11.48;10.25;;;;;;;24.70;57.80;101644.09;4963688;28;20276;-80
2023/09/10 02:10:54;;;;;;;11.95;10.75;;;;;;;24.69;58.12;101649.56;4963451;28;20122;-78
2023/09/10 02:13:19;;;;;;;11.75;10.55;;;;;;;24.69;57.86;101650.44;4965122;28;20106;-79
2023/09/10 02:15:45;;;;;;;12.82;11.45;;;;;;;24.69;58.10;101650.44;4964035;28;20133;-79
2023/09/10 02:18:10;;;;;;;12.35;10.70;;;;;;;24.70;57.75;101657.44;4962798;28;20038;-80
2023/09/10 02:20:36;;;;;;;13.32;11.25;;;;;;;24.68;58.08;101648.75;4964079;28;20035;-79
2023/09/10 02:23:02;;;;;;;12.75;10.95;;;;;;;24.70;57.84;101653.94;4963847;28;20121;-79
2023/09/10 02:25:27;;;;;;;11.77;10.55;;;;;;;24.69;57.95;101647.78;4962929;28;20031;-77
2023/09/10 02:27:53;;;;;;;12.05;10.85;;;;;;;24.68;57.74;101648.75;4963666;28;20101;-77
2023/09/10 02:30:18;;;;;;;12.02;10.70;;;;;;;24.69;57.97;101652.25;4964132;28;20073;-77
2023/09/10 02:32:43;;;;;;;12.13;10.07;;;;;;;24.68;58.00;101651.41;4963029;28;20487;-78
2023/09/10 02:35:09;;;;;;;11.57;10.37;;;;;;;24.68;57.78;101651.41;4963374;28;20480;-79
2023/09/10 02:37:34;;;;;;;12.82;10.65;;;;;;;24.68;58.02;101651.41;4963320;28;20265;-78
2023/09/10 02:39:59;;;;;;;11.27;10.13;;;;;;;24.68;58.01;101646.09;4961271;28;20042;-79
2023/09/10 02:42:24;;;;;;;12.38;10.75;;;;;;;24.67;57.83;101641.72;4962699;28;20520;-78
2023/09/10 02:44:50;;;;;;;12.33;10.57;;;;;;;24.68;57.65;101643.41;4962383;28;20298;-79
2023/09/10 02:47:15;;;;;;;12.90;11.55;;;;;;;24.68;57.94;101647.91;4962242;28;20276;-78
2023/09/10 02:49:40;;;;;;;13.88;11.43;;;;;;;24.66;57.76;101642.75;4962284;28;20903;-79
2023/09/10 02:52:06;;;;;;;12.10;10.88;;;;;;;24.66;57.89;101645.41;4962584;28;20487;-79
2023/09/10 02:54:34;;;;;;;12.02;10.82;;;;;;;24.66;57.97;101644.53;4961863;28;20197;-78
2023/09/10 02:57:00;;;;;;;12.85;11.50;;;;;;;24.66;57.91;101650.72;4962456;28;20035;-78
2023/09/10 02:59:26;;;;;;;14.18;11.68;;;;;;;24.67;57.98;101654.22;4962522;28;20431;-77
2023/09/10 03:01:52;;;;;;;13.77;11.98;;;;;;;24.65;57.66;101651.72;4962782;28;20038;-78
2023/09/10 03:04:18;;;;;;;13.13;11.82;;;;;;;24.67;57.76;101651.56;4962798;28;20045;-79
2023/09/10 03:06:49;;;;;;;12.20;11.00;;;;;;;24.64;57.97;101647.34;4961838;28;20030;-79
2023/09/10 03:09:15;;;;;;;13.20;11.77;;;;;;;24.66;57.91;101649.88;4961697;28;20115;-78
2023/09/10 03:11:42;;;;;;;14.98;12.13;;;;;;;24.64;57.79;101655.34;4961492;28;20038;-79
2023/09/10 03:14:08;;;;;;;14.02;11.82;;;;;;;24.65;57.71;101654.38;4961720;28;20043;-77
2023/09/10 03:16:35;;;;;;;13.35;11.80;;;;;;;24.65;58.18;101642.88;4961692;28;20058;-78
2023/09/10 03:19:00;;;;;;;13.32;11.90;;;;;;;24.63;57.93;101643.88;4961930;28;20488;-78
2023/09/10 03:21:27;;;;;;;13.23;11.85;;;;;;;24.66;57.90;101649.88;4961115;28;20043;-78
2023/09/10 03:23:53;;;;;;;13.18;11.85;;;;;;;24.65;57.78;101642.88;4961910;28;21189;-78
2023/09/10 03:26:18;;;;;;;13.75;12.30;;;;;;;24.65;57.58;101645.56;4962503;28;20035;-77
2023/09/10 03:28:43;;;;;;;13.77;12.27;;;;;;;24.65;57.94;101637.56;4961637;28;20033;-78
2023/09/10 03:31:09;;;;;;;13.95;12.45;;;;;;;24.64;57.97;101639.38;4962605;28;20039;-77
2023/09/10 03:33:35;;;;;;;14.45;12.95;;;;;;;24.65;58.10;101642.88;4962495;28;20066;-76
2023/09/10 03:36:00;;;;;;;14.32;11.88;;;;;;;24.65;58.09;101638.38;4961237;28;20033;-77
2023/09/10 03:38:25;;;;;;;14.25;12.10;;;;;;;24.63;57.79;101641.19;4961902;28;20043;-78
2023/09/10 03:40:51;;;;;;;14.55;12.45;;;;;;;24.64;58.01;101639.38;4961942;28;20035;-78
2023/09/10 03:43:16;;;;;;;14.00;12.60;;;;;;;24.65;57.91;101648.22;4961322;28;20035;-77
2023/09/10 03:45:42;;;;;;;14.02;12.45;;;;;;;24.64;57.92;101639.38;4962409;28;20277;-77
2023/09/10 03:48:07;;;;;;;14.05;12.65;;;;;;;24.62;57.92;101638.69;4961903;28;20027;-79
2023/09/10 03:50:32;;;;;;;13.40;12.10;;;;;;;24.64;57.78;101639.38;4961387;28;20118;-77
2023/09/10 03:52:57;;;;;;;14.95;12.45;;;;;;;24.63;57.73;101638.53;4961697;28;20276;-79
2023/09/10 03:55:23;;;;;;;14.00;12.57;;;;;;;24.63;57.81;101633.19;4961633;28;20035;-79
2023/09/10 03:57:48;;;;;;;14.35;12.77;;;;;;;24.63;57.68;101630.53;4960200;28;20969;-78
2023/09/10 04:00:13;;;;;;;14.57;13.07;;;;;;;24.63;57.60;101632.38;4992763;28;20701;-79
2023/09/10 04:02:39;;;;;;;14.65;13.10;;;;;;;24.63;58.01;101632.38;4960679;28;20034;-77
2023/09/10 04:05:05;;;;;;;13.40;12.10;;;;;;;24.64;57.83;101623.38;4961418;28;20030;-77
2023/09/10 04:07:31;;;;;;;14.38;12.88;;;;;;;24.61;57.88;101629.84;4961348;28;20034;-77
2023/09/10 04:09:57;;;;;;;15.02;12.88;;;;;;;24.62;57.82;101628.88;4961388;28;20038;-78
2023/09/10 04:12:22;;;;;;;13.95;12.45;;;;;;;24.62;58.04;101623.56;4962482;28;20451;-77
2023/09/10 04:14:47;;;;;;;14.40;12.88;;;;;;;24.62;57.97;101626.22;4961484;28;20031;-79
2023/09/10 04:17:20;;;;;;;13.70;12.30;;;;;;;24.62;57.70;101622.69;4961691;28;20683;-78
2023/09/10 04:19:45;;;;;;;13.88;12.43;;;;;;;24.62;57.79;101620.88;4961910;28;20129;-79
2023/09/10 04:22:10;;;;;;;13.60;12.20;;;;;;;24.61;57.86;101621.88;4992135;28;20121;-78
2023/09/10 04:24:37;;;;;;;15.75;13.32;;;;;;;24.62;57.67;101617.38;4960792;28;20167;-78
2023/09/10 04:27:03;;;;;;;13.60;12.20;;;;;;;24.60;57.64;101617.50;4960653;28;20964;-78
2023/09/10 04:29:35;;;;;;;13.85;12.35;;;;;;;24.60;57.92;101619.34;4961046;28;20736;-78
2023/09/10 04:32:01;;;;;;;14.00;12.57;;;;;;;24.62;57.75;101620.88;4959403;28;20035;-79
2023/09/10 04:34:26;;;;;;;15.45;12.57;;;;;;;24.59;57.67;101615.84;4960254;28;20039;-79
2023/09/10 04:36:52;;;;;;;16.00;13.20;;;;;;;24.61;57.61;101621.88;4959972;28;20030;-79
2023/09/10 04:39:17;;;;;;;13.93;12.45;;;;;;;24.61;57.61;101621.03;4960425;28;20109;-78
2023/09/10 04:41:43;;;;;;;13.65;12.25;;;;;;;24.62;57.67;101628.03;4960452;28;20066;-78
2023/09/10 04:44:08;;;;;;;13.57;12.18;;;;;;;24.60;57.60;101624.69;4960486;28;20715;-78
2023/09/10 04:46:33;;;;;;;13.63;12.23;;;;;;;24.60;57.76;101632.66;4959790;28;20046;-78
2023/09/10 04:48:59;;;;;;;12.97;11.67;;;;;;;24.59;57.62;101623.84;4960262;28;20041;-77
2023/09/10 04:51:24;;;;;;;13.65;12.13;;;;;;;24.59;57.88;101620.31;4960363;28;20796;-79
2023/09/10 04:53:49;;;;;;;14.27;12.70;;;;;;;24.59;57.90;101629.19;4959685;28;20038;-79
2023/09/10 04:56:15;;;;;;;14.30;12.55;;;;;;;24.59;57.62;101628.31;4960615;28;20089;-78
2023/09/10 04:58:40;;;;;;;15.00;12.73;;;;;;;24.59;57.77;101623.84;4960837;28;20050;-79
2023/09/10 05:01:05;;;;;;;13.32;11.93;;;;;;;24.58;57.64;101626.66;4960505;28;20046;-78
2023/09/10 05:03:32;;;;;;;14.32;12.88;;;;;;;24.57;57.66;101625.81;4961001;28;20042;-79
2023/09/10 05:05:59;;;;;;;14.30;12.80;;;;;;;24.58;57.57;101630.16;4961061;28;20187;-78
2023/09/10 05:08:26;;;;;;;15.60;12.32;;;;;;;24.58;57.49;101635.47;4961738;28;20053;-79
2023/09/10 05:10:51;;;;;;;13.77;12.35;;;;;;;24.58;57.77;101638.16;4961010;28;20035;-79
2023/09/10 05:13:17;;;;;;;14.38;12.52;;;;;;;24.57;57.65;101639.13;4992291;28;20035;-78
2023/09/10 05:15:46;;;;;;;13.57;12.27;;;;;;;24.58;57.63;101642.66;4961647;28;20054;-79
2023/09/10 05:18:11;;;;;;;13.75;12.30;;;;;;;24.57;57.64;101643.63;4975796;28;20313;-79
2023/09/10 05:20:37;;;;;;;12.82;11.52;;;;;;;24.57;57.90;101644.47;4975212;28;20515;-79
2023/09/10 05:23:05;;;;;;;14.05;12.55;;;;;;;24.56;57.85;101633.91;4961740;28;20070;-79
2023/09/10 05:25:30;;;;;;;13.80;12.40;;;;;;;24.56;57.77;101640.13;4960116;28;20043;-79
2023/09/10 05:27:56;;;;;;;12.55;11.30;;;;;;;24.56;57.56;101640.13;4960657;28;20875;-79
2023/09/10 05:30:22;;;;;;;14.38;12.88;;;;;;;24.55;57.84;101635.75;4992462;28;20034;-79
2023/09/10 05:32:47;;;;;;;13.43;11.93;;;;;;;24.56;57.73;101637.47;4963000;28;20374;-79
2023/09/10 05:35:13;;;;;;;13.95;12.55;;;;;;;24.57;57.66;101647.13;4964343;28;20786;-79
2023/09/10 05:37:38;;;;;;;12.98;11.60;;;;;;;24.56;57.58;101639.25;4979652;28;20431;-78
2023/09/10 05:40:04;;;;;;;14.15;12.65;;;;;;;24.57;57.60;101640.97;4963021;28;20058;-79
2023/09/10 05:42:29;;;;;;;14.02;12.63;;;;;;;24.56;57.51;101644.56;4963166;28;20141;-78
2023/09/10 05:44:55;;;;;;;13.07;11.68;;;;;;;24.56;57.59;101645.47;4963279;28;20615;-79
2023/09/10 05:47:20;;;;;;;12.95;11.60;;;;;;;24.56;57.76;101645.47;4963704;28;20117;-78
2023/09/10 05:49:51;;;;;;;13.45;12.02;;;;;;;24.54;57.60;101649.22;4962707;28;20518;-79
2023/09/10 05:52:16;;;;;;;13.65;12.27;;;;;;;24.56;57.72;101644.56;4963499;28;20101;-76
2023/09/10 05:54:42;;;;;;;13.75;11.75;;;;;;;24.58;57.48;101646.16;4964047;28;20046;-82
2023/09/10 05:57:07;;;;;;;14.48;12.98;;;;;;;24.62;57.24;101652.00;4961874;28;20448;-75
2023/09/10 05:59:32;;;;;;;13.00;11.63;;;;;;;24.64;57.34;101647.34;4964255;28;20042;-79
2023/09/10 06:01:58;;;;;;;14.65;11.93;;;;;;;24.64;57.92;101652.69;4964501;28;20042;-78
2023/09/10 06:04:23;;;;;;;12.65;11.38;;;;;;;24.66;57.75;101660.53;4963602;28;20039;-76
2023/09/10 06:06:48;;;;;;;13.10;11.77;;;;;;;24.65;57.73;101658.88;4963632;28;20213;-76
2023/09/10 06:09:14;;;;;;;13.73;12.15;;;;;;;24.66;58.27;101663.19;4963838;28;20110;-78
2023/09/10 06:11:39;;;;;;;13.00;11.70;;;;;;;24.66;58.11;101668.53;4977596;28;20097;-78
2023/09/10 06:14:05;;;;;;;12.73;11.43;;;;;;;24.64;57.77;101663.34;4964065;28;20031;-78
2023/09/10 06:16:30;;;;;;;12.95;11.10;;;;;;;24.62;57.99;101666.19;4962141;28;20313;-76
2023/09/10 06:18:55;;;;;;;12.27;11.07;;;;;;;24.66;58.18;101671.19;4962750;28;20463;-76
2023/09/10 06:21:21;;;;;;;12.98;11.40;;;;;;;24.62;58.32;101670.66;4962799;28;20046;-76
2023/09/10 06:23:46;;;;;;;13.68;11.38;;;;;;;24.63;58.22;101670.50;4961683;28;20031;-77
2023/09/10 06:26:13;;;;;;;13.10;11.80;;;;;;;24.64;58.42;101674.00;4962438;28;20059;-77
2023/09/10 06:28:39;;;;;;;13.30;11.70;;;;;;;24.63;58.46;101673.19;4963483;28;20084;-77
2023/09/10 06:31:06;;;;;;;13.13;11.73;;;;;;;24.62;58.36;101674.19;4963176;28;20034;-77
2023/09/10 06:33:31;;;;;;;12.23;10.95;;;;;;;24.63;58.20;101675.00;4963444;28;20038;-76
2023/09/10 06:35:57;;;;;;;13.05;11.55;;;;;;;24.61;58.37;101672.50;4962557;28;20419;-76
2023/09/10 06:38:22;;;;;;;12.85;11.48;;;;;;;24.61;58.44;101675.16;4961040;28;20031;-78
2023/09/10 06:40:48;;;;;;;12.07;10.80;;;;;;;24.63;58.37;101683.84;4962710;28;20047;-78
2023/09/10 06:43:14;;;;;;;12.52;11.02;;;;;;;24.59;58.75;101677.16;4962404;28;20070;-79
2023/09/10 06:45:41;;;;;;;12.80;11.50;;;;;;;24.63;58.62;101681.19;4961513;28;20038;-75
2023/09/10 06:48:06;;;;;;;12.27;11.05;;;;;;;24.62;58.72;101676.84;4962538;28;20564;-77
2023/09/10 06:50:32;;;;;;;13.57;11.02;;;;;;;24.63;58.75;101683.00;4962429;28;20030;-78
2023/09/10 06:52:57;;;;;;;12.68;11.35;;;;;;;24.64;58.74;101679.34;4962146;28;20153;-84
2023/09/10 06:55:23;;;;;;;12.52;11.23;;;;;;;24.64;58.59;101679.34;4963350;28;20030;-83
2023/09/10 06:57:49;;;;;;;12.52;10.93;;;;;;;24.63;58.66;101683.84;4963689;28;20039;-85
2023/09/10 07:00:14;;;;;;;12.25;11.00;;;;;;;24.63;58.81;101683.84;4963088;28;20038;-86
2023/09/10 07:02:40;;;;;;;15.27;11.10;;;;;;;24.66;58.73;101687.19;4962907;28;20125;-80
2023/09/10 07:05:05;;;;;;;12.37;11.10;;;;;;;24.69;58.91;101689.56;4964632;28;20035;-77
2023/09/10 07:07:30;;;;;;;12.90;11.48;;;;;;;24.72;58.75;101692.78;4964019;28;20269;-86
2023/09/10 07:09:56;;;;;;;13.45;10.98;;;;;;;24.78;58.91;101691.34;4965191;28;20070;-84
2023/09/10 07:12:21;;;;;;;13.10;10.85;;;;;;;24.80;59.00;101692.03;4965644;28;20201;-82
2023/09/10 07:14:49;;;;;;;12.88;10.57;;;;;;;24.83;58.84;101690.91;4962069;28;20042;-83
2023/09/10 07:17:15;;;;;;;12.80;10.70;;;;;;;24.83;58.56;101693.56;4963748;28;20082;-82
2023/09/10 07:19:40;;;;;;;12.52;10.82;;;;;;;24.85;59.21;101691.56;4964110;28;20073;-76
2023/09/10 07:22:06;;;;;;;12.90;10.45;;;;;;;24.87;58.99;101694.94;4964140;28;20039;-79
2023/09/10 07:24:31;;;;;;;11.07;9.98;;;;;;;24.88;59.11;101691.28;4965213;28;20571;-79
2023/09/10 07:26:58;;;;;;;13.00;10.00;;;;;;;24.90;59.04;101690.16;4963434;28;20499;-74
2023/09/10 07:29:24;;;;;;;10.75;9.65;;;;;;;24.85;58.95;101691.56;4993184;28;20042;-74
2023/09/10 07:31:49;;;;;;;12.93;9.63;;;;;;;24.83;58.94;101689.06;4960123;28;20030;-72
2023/09/10 07:34:14;;;;;;;13.15;10.50;;;;;;;24.85;59.21;101697.78;4963275;28;20116;-85
2023/09/10 07:36:40;;;;;;;13.45;10.13;;;;;;;24.90;59.19;101692.00;4963821;28;20645;-79
2023/09/10 07:39:06;;;;;;;11.15;9.80;;;;;;;24.91;59.11;101691.84;4963437;28;20042;-75
2023/09/10 07:41:32;;;;;;;11.13;9.40;;;;;;;24.93;59.08;101692.53;4960432;28;20037;-76
2023/09/10 07:43:59;;;;;;;12.27;9.98;;;;;;;24.94;59.02;101691.53;4961996;28;20502;-77
2023/09/10 07:46:24;;;;;;;11.27;9.18;;;;;;;24.95;58.82;101693.19;4962577;28;20031;-77
2023/09/10 07:48:50;;;;;;;12.55;9.60;;;;;;;24.96;59.04;101694.91;4992878;28;20057;-78
2023/09/10 07:51:15;;;;;;;13.40;10.07;;;;;;;24.96;58.91;101689.56;4962671;28;20035;-77
2023/09/10 07:53:40;;;;;;;10.80;9.52;;;;;;;24.97;59.04;101693.06;4961913;28;20499;-82
2023/09/10 07:56:06;;;;;;;11.85;9.32;;;;;;;24.97;59.48;101691.22;4961645;28;20062;-81
2023/09/10 07:58:31;;;;;;;12.18;9.85;;;;;;;24.97;59.17;101693.88;4962944;28;20035;-83
2023/09/10 08:00:57;;;;;;;11.10;9.32;;;;;;;24.98;59.17;101694.75;4962674;28;20298;-85
2023/09/10 08:03:24;;;;;;;13.23;9.52;;;;;;;24.98;59.30;101697.41;4962959;28;20455;-78
2023/09/10 08:05:49;;;;;;;10.77;8.95;;;;;;;25.01;59.45;101707.78;4962565;28;20034;-77
2023/09/10 08:08:14;;;;;;;11.50;9.32;;;;;;;25.03;58.82;101712.97;4961076;28;20551;-76
2023/09/10 08:10:42;;;;;;;9.88;8.88;;;;;;;25.05;59.27;101709.13;4959186;28;20037;-78
2023/09/10 08:13:07;;;;;;;12.55;10.93;;;;;;;25.07;59.37;101711.66;4960138;28;20062;-75
2023/09/10 08:15:33;;;;;;;16.98;11.75;;;;;;;25.08;59.58;101714.19;4959645;28;20066;-74
2023/09/10 08:17:59;;;;;;;16.75;11.38;;;;;;;25.08;59.43;101713.34;4959271;28;20079;-74
2023/09/10 08:20:24;;;;;;;15.50;11.63;;;;;;;25.08;59.76;101710.69;4961279;28;20046;-74
2023/09/10 08:22:50;;;;;;;24.77;11.52;;;;;;;25.07;59.78;101701.84;4960093;28;20089;-75
2023/09/10 08:25:15;;;;;;;17.08;11.00;;;;;;;25.05;59.64;101703.81;4961317;28;20062;-82
2023/09/10 08:27:40;;;;;;;15.85;10.80;;;;;;;25.11;59.48;101702.38;4963165;28;20093;-78
2023/09/10 08:30:09;;;;;;;14.65;10.40;;;;;;;25.13;59.72;101709.25;4965150;28;20532;-78
2023/09/10 08:32:35;;;;;;;14.55;10.00;;;;;;;25.15;59.34;101698.41;4964174;28;20109;-76
2023/09/10 08:35:04;;;;;;;13.98;10.18;;;;;;;25.17;59.54;101699.13;4977293;28;20041;-83
2023/09/10 08:37:32;;;;;;;13.75;9.82;;;;;;;25.16;59.51;101692.09;4961891;28;20035;-83
2023/09/10 08:39:58;;;;;;;11.65;9.52;;;;;;;25.15;59.36;101698.41;4961803;28;20456;-77
2023/09/10 08:42:47;;;;;;;11.25;9.50;;;;;;;25.16;59.37;101702.75;4963326;28;20041;-76
2023/09/10 08:45:13;;;;;;;11.85;8.82;;;;;;;25.17;59.32;101696.44;4994258;28;20046;-78
2023/09/10 08:47:41;;;;;;;12.82;9.13;;;;;;;25.16;59.11;101694.75;4961665;28;20406;-78
2023/09/10 08:50:12;;;;;;;9.73;8.60;;;;;;;25.15;59.56;101701.94;4963310;28;20034;-81
2023/09/10 08:52:39;;;;;;;11.80;8.70;;;;;;;25.16;59.17;101703.59;4960865;28;20050;-77
2023/09/10 08:55:06;;;;;;;11.32;9.25;;;;;;;25.17;59.29;101694.59;4964607;28;20042;-78
2023/09/10 08:57:33;;;;;;;11.35;9.38;;;;;;;25.16;59.05;101700.91;4964728;28;20023;-77
2023/09/10 09:00:00;;;;;;;11.50;8.65;;;;;;;25.16;59.41;101702.75;4973506;28;20035;-73
2023/09/10 09:02:25;;;;;;;10.77;8.40;;;;;;;25.14;59.51;101700.25;4958263;28;20049;-74
2023/09/10 09:04:51;;;;;;;12.48;8.85;;;;;;;25.11;59.77;101708.53;4959471;28;20035;-72
2023/09/10 09:07:19;;;;;;;13.77;8.68;;;;;;;25.09;59.90;101699.88;4960698;28;20027;-73
2023/09/10 09:09:49;;;;;;;12.93;8.77;;;;;;;25.11;59.82;101705.03;4963937;28;20042;-72
2023/09/10 09:12:17;;;;;;;10.35;8.25;;;;;;;25.11;59.82;101705.03;4963085;28;20133;-72
2023/09/10 09:14:46;;;;;;;11.80;8.90;;;;;;;25.10;59.69;101698.03;4963661;28;20098;-69
2023/09/10 09:17:12;;;;;;;10.50;8.70;;;;;;;25.10;59.99;101703.34;4964228;28;20051;-76
2023/09/10 09:19:44;;;;;;;10.25;7.82;;;;;;;25.08;59.82;101695.50;4963512;28;20066;-76
2023/09/10 09:22:11;;;;;;;11.60;8.63;;;;;;;25.10;59.91;101693.56;4964204;28;20915;-77
2023/09/10 09:24:37;;;;;;;10.60;8.20;;;;;;;25.10;59.63;101693.56;4964253;28;20110;-76
2023/09/10 09:27:03;;;;;;;11.55;8.13;;;;;;;25.10;59.56;101690.03;4963771;28;20041;-76
2023/09/10 09:29:29;;;;;;;10.68;8.05;;;;;;;25.11;59.46;101694.38;4965790;28;20512;-77
2023/09/10 09:31:55;;;;;;;8.68;7.78;;;;;;;25.06;59.32;101691.34;4997223;28;20045;-77
2023/09/10 09:34:20;;;;;;;9.73;8.10;;;;;;;25.09;60.01;101688.38;4997319;28;20041;-78
2023/09/10 09:36:51;;;;;;;9.35;8.25;;;;;;;25.06;59.94;101686.84;4967226;28;20035;-76
2023/09/10 09:39:20;;;;;;;13.43;8.35;;;;;;;25.07;60.88;101685.00;4995391;28;20491;-75
2023/09/10 09:41:52;;;;;;;11.50;8.90;;;;;;;25.07;61.27;101679.66;4962444;28;20069;-79
2023/09/10 09:44:19;;;;;;;10.32;8.20;;;;;;;25.08;61.47;101686.69;4964153;28;20026;-76
2023/09/10 09:46:45;;;;;;;10.45;8.10;;;;;;;25.08;61.27;101682.19;4963566;28;20121;-75
2023/09/10 09:49:11;;;;;;;11.18;7.97;;;;;;;25.08;61.42;101679.50;4962259;28;20470;-76
2023/09/10 09:51:40;;;;;;;10.95;7.88;;;;;;;25.09;61.61;101683.88;4964309;28;20042;-74
2023/09/10 09:54:07;;;;;;;9.93;8.27;;;;;;;25.10;61.74;101679.34;4964259;28;20045;-76
2023/09/10 09:56:32;;;;;;;10.40;8.07;;;;;;;25.10;61.56;101676.69;4963338;28;20041;-76
2023/09/10 09:58:58;;;;;;;10.65;7.65;;;;;;;25.09;61.51;101670.53;4963948;28;20031;-76
2023/09/10 10:01:24;;;;;;;11.27;7.40;;;;;;;25.11;61.41;101675.72;4963853;28;20134;-74
2023/09/10 10:03:50;;;;;;;11.80;7.40;;;;;;;25.10;61.69;101672.22;4994599;28;20043;-75
2023/09/10 10:06:17;;;;;;;10.43;7.57;;;;;;;25.11;61.62;101668.53;4962956;28;20058;-77
2023/09/10 10:08:48;;;;;;;11.57;7.30;;;;;;;25.10;61.77;101666.88;4962172;28;20035;-75
2023/09/10 10:11:14;;;;;;;9.90;7.28;;;;;;;25.12;61.51;101672.06;4963408;28;20035;-74
2023/09/10 10:13:40;;;;;;;11.05;7.43;;;;;;;25.12;61.49;101670.22;4963427;28;20049;-76
2023/09/10 10:16:06;;;;;;;9.85;7.07;;;;;;;25.12;61.41;101664.91;4963007;28;20053;-75
2023/09/10 10:18:31;;;;;;;9.95;7.20;;;;;;;25.13;61.48;101661.25;4963129;28;20035;-73
2023/09/10 10:20:58;;;;;;;10.25;7.25;;;;;;;25.14;61.58;101662.91;4961757;28;20101;-79
2023/09/10 10:23:23;;;;;;;9.50;6.47;;;;;;;25.17;61.47;101664.44;4962518;28;20121;-76
2023/09/10 10:25:49;;;;;;;10.20;6.68;;;;;;;25.16;61.02;101657.41;4994353;28;20165;-79
2023/09/10 10:28:14;;;;;;;10.00;6.82;;;;;;;25.17;61.19;101659.09;4962842;28;20268;-77
2023/09/10 10:30:51;;;;;;;11.27;6.40;;;;;;;25.17;61.04;101657.28;4962456;28;20460;-74
2023/09/10 10:33:20;;;;;;;9.98;6.32;;;;;;;25.19;60.67;101661.63;4977313;28;20100;-77
2023/09/10 10:36:13;;;;;;;13.35;6.80;;;;;;;25.16;60.76;101658.25;4962641;28;20089;-78
2023/09/10 10:38:43;;;;;;;10.03;6.53;;;;;;;25.17;60.48;101653.78;4961864;28;20467;-77
2023/09/10 10:41:14;;;;;;;11.45;6.63;;;;;;;25.16;60.72;101652.09;4962799;28;20284;-77
2023/09/10 10:43:46;;;;;;;9.98;6.82;;;;;;;25.16;60.86;101655.59;4962314;28;20031;-74
2023/09/10 10:46:12;;;;;;;10.25;6.28;;;;;;;25.15;61.10;101645.06;4993252;28;20041;-78
2023/09/10 10:48:39;;;;;;;7.78;6.40;;;;;;;25.16;61.05;101650.25;4962988;28;20435;-80
2023/09/10 10:51:10;;;;;;;11.05;6.40;;;;;;;25.15;60.57;101645.91;4962371;28;20046;-77
2023/09/10 10:53:35;;;;;;;11.80;6.60;;;;;;;25.18;60.92;101647.44;4962344;28;20133;-76
2023/09/10 10:56:04;;;;;;;11.23;6.43;;;;;;;25.18;60.92;101647.44;4962299;28;20531;-78
2023/09/10 10:58:30;;;;;;;8.07;6.45;;;;;;;25.16;60.98;101639.56;4993051;28;20066;-72
2023/09/10 11:00:58;;;;;;;9.82;6.38;;;;;;;25.16;60.91;101642.25;4962099;28;20748;-74
2023/09/10 11:03:25;;;;;;;10.23;6.07;;;;;;;25.17;60.84;101640.44;4961982;28;20117;-73
2023/09/10 11:05:54;;;;;;;10.18;6.75;;;;;;;25.16;60.99;101636.91;4975463;28;20068;-70
2023/09/10 11:08:33;;;;;;;11.25;6.00;;;;;;;25.15;61.25;101629.06;4960320;28;20706;-72
2023/09/10 11:11:00;;;;;;;7.90;6.10;;;;;;;25.14;61.34;101630.91;4961849;28;20054;-71